Time;durP1;ratioP1;P1;durP2;ratioP2;P2;SDS_P1;SDS_P2;PMS_P1;PMS_P2;Temp;Humidity;BMP_temperature;BMP_pressure;BME280_temperature;BME280_humidity;BME280_pressure;Samples;Min_cycle;Max_cycle;Signal;HPM_P1;HPM_P2
2021/12/10 00:00:19;;;;;;;36.63;26.17;;;4.90;99.90;;;;;;5097173;28;20036;-63
2021/12/10 02:38:18;;;;;;;22.20;15.18;;;4.80;99.90;;;;;;5105123;28;20047;-63
2021/12/10 02:40:52;;;;;;;27.15;15.05;;;4.70;99.90;;;;;;5099905;27;20703;-63
2021/12/10 02:43:22;;;;;;;22.42;13.63;;;4.80;99.90;;;;;;5110411;27;20035;-63
2021/12/10 02:45:55;;;;;;;25.88;13.70;;;4.70;99.90;;;;;;5111207;28;20044;-63
2021/12/10 02:48:21;;;;;;;18.95;12.65;;;4.70;99.90;;;;;;5146751;27;20484;-63
2021/12/10 02:50:47;;;;;;;31.73;13.27;;;4.80;99.90;;;;;;5110384;27;20040;-63
2021/12/10 02:53:16;;;;;;;18.73;12.35;;;4.80;99.90;;;;;;5101701;27;20043;-63
2021/12/10 02:55:43;;;;;;;25.95;12.60;;;4.70;99.90;;;;;;5108089;27;20089;-63
2021/12/10 02:58:12;;;;;;;26.05;11.60;;;4.70;99.90;;;;;;5135470;27;20051;-63
2021/12/10 03:00:49;;;;;;;22.65;12.02;;;4.80;99.90;;;;;;5100718;27;20043;-63
2021/12/10 03:03:15;;;;;;;23.20;12.45;;;4.70;99.90;;;;;;5103651;27;20070;-63
2021/12/10 03:05:42;;;;;;;22.15;11.85;;;4.70;99.90;;;;;;5103081;28;20085;-63
2021/12/10 03:08:08;;;;;;;23.25;12.55;;;4.70;99.90;;;;;;5099842;27;20047;-63
2021/12/10 03:10:35;;;;;;;21.40;12.63;;;4.80;99.90;;;;;;5105888;28;20495;-63
2021/12/10 03:13:01;;;;;;;19.50;12.57;;;4.70;99.90;;;;;;5138033;27;20035;-63
2021/12/10 03:15:29;;;;;;;24.45;12.80;;;4.70;99.90;;;;;;5108264;28;20503;-63
2021/12/10 03:17:56;;;;;;;22.65;12.27;;;4.70;99.90;;;;;;5112023;27;20167;-64
2021/12/10 03:20:24;;;;;;;19.45;11.63;;;4.70;99.90;;;;;;5119166;27;20058;-63
2021/12/10 03:22:51;;;;;;;17.73;12.45;;;4.60;99.90;;;;;;5143392;27;20045;-63
2021/12/10 03:25:25;;;;;;;18.40;12.25;;;4.70;99.90;;;;;;5113622;27;20063;-63
2021/12/10 03:27:50;;;;;;;23.80;12.75;;;4.70;99.90;;;;;;5113843;27;20152;-63
2021/12/10 03:30:23;;;;;;;21.67;13.05;;;4.60;99.90;;;;;;5101547;27;20118;-63
2021/12/10 03:32:49;;;;;;;20.27;12.00;;;4.60;99.90;;;;;;5097478;28;20512;-63
2021/12/10 03:35:28;;;;;;;17.63;13.07;;;4.60;99.90;;;;;;5083837;28;20133;-63
2021/12/10 03:37:55;;;;;;;25.85;13.55;;;4.60;99.90;;;;;;5132252;27;20047;-63
2021/12/10 03:40:20;;;;;;;23.10;14.70;;;4.60;99.90;;;;;;5102351;27;20127;-63
2021/12/10 03:42:47;;;;;;;22.83;13.43;;;4.60;99.90;;;;;;5132527;27;20130;-63
2021/12/10 03:45:15;;;;;;;22.95;13.73;;;4.60;99.90;;;;;;5101484;27;20039;-63
2021/12/10 03:47:41;;;;;;;14.77;11.32;;;4.50;99.90;;;;;;5132437;27;20032;-63
2021/12/10 03:50:10;;;;;;;13.43;10.30;;;4.50;99.90;;;;;;5101784;27;20114;-63
2021/12/10 03:52:35;;;;;;;18.45;11.85;;;4.50;99.90;;;;;;5103685;27;20044;-63
2021/12/10 03:55:03;;;;;;;21.15;12.25;;;4.50;99.90;;;;;;5099512;27;20126;-63
2021/12/10 03:57:29;;;;;;;17.65;11.32;;;4.40;99.90;;;;;;5103648;27;20126;-63
2021/12/10 03:59:54;;;;;;;21.17;11.60;;;4.40;99.90;;;;;;5098466;28;20131;-63
2021/12/10 04:02:20;;;;;;;15.75;11.00;;;4.30;99.90;;;;;;5100262;27;20086;-63
2021/12/10 04:04:48;;;;;;;15.45;10.43;;;4.40;99.90;;;;;;5099572;27;20036;-63
2021/12/10 04:07:24;;;;;;;16.33;10.02;;;4.30;99.90;;;;;;5089282;28;20050;-63
2021/12/10 04:09:50;;;;;;;15.23;11.82;;;4.30;99.90;;;;;;5099592;28;20047;-63
2021/12/10 04:12:17;;;;;;;22.20;11.55;;;4.30;99.90;;;;;;5101723;28;20465;-63
2021/12/10 04:14:44;;;;;;;19.08;11.57;;;4.20;99.90;;;;;;5096899;28;20044;-63
2021/12/10 04:17:10;;;;;;;23.77;13.10;;;4.10;99.90;;;;;;5097433;27;20036;-62
2021/12/10 04:19:37;;;;;;;20.83;12.95;;;4.10;99.90;;;;;;5096669;28;21532;-63
2021/12/10 04:22:06;;;;;;;18.95;14.05;;;4.10;99.90;;;;;;5102106;27;20088;-63
2021/12/10 04:24:37;;;;;;;21.40;13.80;;;4.00;99.90;;;;;;5101929;27;20108;-63
2021/12/10 04:27:06;;;;;;;23.48;14.82;;;4.00;99.90;;;;;;5098658;27;20032;-63
2021/12/10 04:29:31;;;;;;;20.00;14.63;;;3.90;99.90;;;;;;5134016;27;20135;-63
2021/12/10 04:31:58;;;;;;;21.85;15.80;;;3.90;99.90;;;;;;5133686;27;20139;-63
2021/12/10 04:34:24;;;;;;;21.63;15.93;;;3.80;99.90;;;;;;5130773;27;20496;-63
2021/12/10 04:36:53;;;;;;;22.15;16.10;;;3.80;99.90;;;;;;5135646;27;20043;-63
2021/12/10 04:39:19;;;;;;;22.63;17.90;;;3.70;99.90;;;;;;5098774;28;20044;-63
2021/12/10 04:41:44;;;;;;;22.38;16.45;;;3.80;99.90;;;;;;5100556;28;20047;-63
2021/12/10 04:44:10;;;;;;;23.95;16.63;;;3.70;99.90;;;;;;5098697;27;20036;-63
2021/12/10 04:46:37;;;;;;;25.52;17.27;;;3.70;99.90;;;;;;5102891;27;20069;-63
2021/12/10 04:49:07;;;;;;;26.88;18.05;;;3.60;99.90;;;;;;5135566;27;20041;-63
2021/12/10 04:51:54;;;;;;;25.52;18.67;;;3.60;99.90;;;;;;5101461;27;20040;-63
2021/12/10 04:54:22;;;;;;;26.63;16.45;;;3.70;99.90;;;;;;5103676;28;20096;-63
2021/12/10 04:56:49;;;;;;;23.25;17.63;;;3.60;99.90;;;;;;5101081;28;20039;-63
2021/12/10 04:59:17;;;;;;;27.70;17.67;;;3.60;99.90;;;;;;5099813;28;20052;-63
2021/12/10 05:01:43;;;;;;;28.92;18.23;;;3.50;99.90;;;;;;5104537;27;20101;-63
2021/12/10 05:04:11;;;;;;;22.63;17.10;;;3.40;99.90;;;;;;5102162;27;20074;-63
2021/12/10 05:06:37;;;;;;;25.00;19.05;;;3.40;99.90;;;;;;5101613;27;20119;-63
2021/12/10 05:09:05;;;;;;;26.65;17.63;;;3.40;99.90;;;;;;5104080;27;20145;-63
2021/12/10 05:11:31;;;;;;;22.45;18.60;;;3.40;99.90;;;;;;5101867;28;20670;-63
2021/12/10 05:13:57;;;;;;;28.13;17.10;;;3.30;99.90;;;;;;5104156;27;20035;-63
2021/12/10 05:16:26;;;;;;;21.65;17.65;;;3.30;99.90;;;;;;5101653;28;20059;-63
2021/12/10 05:18:57;;;;;;;24.52;18.38;;;3.30;99.90;;;;;;5132320;27;20048;-63
2021/12/10 05:21:33;;;;;;;22.75;16.45;;;3.30;99.90;;;;;;5102355;27;20070;-63
2021/12/10 05:24:00;;;;;;;23.02;16.83;;;3.30;99.90;;;;;;5102434;28;20040;-63
2021/12/10 05:26:26;;;;;;;25.38;18.30;;;3.30;99.90;;;;;;5134328;27;20035;-63
2021/12/10 05:28:53;;;;;;;21.77;17.33;;;3.20;99.90;;;;;;5100419;27;20115;-63
2021/12/10 05:31:18;;;;;;;30.52;19.02;;;3.20;99.90;;;;;;5097451;28;20059;-63
2021/12/10 05:33:44;;;;;;;25.45;18.80;;;3.20;99.90;;;;;;5128275;27;20035;-63
2021/12/10 05:36:10;;;;;;;23.85;18.67;;;3.20;99.90;;;;;;5097628;27;20066;-63
2021/12/10 05:38:36;;;;;;;27.10;19.63;;;3.10;99.90;;;;;;5093143;28;20067;-63
2021/12/10 05:41:05;;;;;;;25.30;19.98;;;3.10;99.90;;;;;;5096011;28;20044;-63
2021/12/10 05:43:35;;;;;;;27.63;20.60;;;3.10;99.90;;;;;;5092464;28;20031;-63
2021/12/10 05:46:01;;;;;;;28.52;20.80;;;3.10;99.90;;;;;;5094398;28;20036;-63
2021/12/10 05:48:26;;;;;;;29.10;19.38;;;3.10;99.90;;;;;;5096911;28;20054;-63
2021/12/10 05:50:52;;;;;;;27.00;19.80;;;3.10;99.90;;;;;;5094052;28;20050;-63
2021/12/10 05:53:18;;;;;;;28.58;19.83;;;3.10;99.90;;;;;;5095508;28;20050;-63
2021/12/10 05:55:45;;;;;;;22.00;18.65;;;3.20;99.90;;;;;;5129503;27;20062;-63
2021/12/10 05:58:16;;;;;;;23.42;18.85;;;3.10;99.90;;;;;;5095128;27;20043;-63
2021/12/10 06:00:51;;;;;;;22.80;18.85;;;3.00;99.90;;;;;;5095836;28;20131;-63
2021/12/10 06:03:17;;;;;;;22.65;18.75;;;3.00;99.90;;;;;;5097174;28;20047;-63
2021/12/10 06:05:44;;;;;;;24.40;18.95;;;2.90;99.90;;;;;;5096112;28;20039;-63
2021/12/10 06:08:11;;;;;;;22.10;17.70;;;2.80;99.90;;;;;;5102697;28;20130;-63
2021/12/10 06:10:37;;;;;;;19.95;16.73;;;2.70;99.90;;;;;;5096600;28;20032;-63
2021/12/10 06:13:03;;;;;;;20.17;15.85;;;2.70;99.90;;;;;;5093417;28;20040;-63
2021/12/10 06:15:29;;;;;;;22.63;17.63;;;2.70;99.90;;;;;;5097380;28;20099;-64
2021/12/10 06:17:55;;;;;;;22.55;16.80;;;2.60;99.90;;;;;;5098857;28;20040;-63
2021/12/10 06:20:26;;;;;;;21.55;16.40;;;2.80;99.90;;;;;;5098476;28;20384;-63
2021/12/10 06:22:53;;;;;;;22.90;16.50;;;2.80;99.90;;;;;;5093464;28;20494;-63
2021/12/10 06:25:19;;;;;;;22.23;15.63;;;2.60;99.90;;;;;;5097494;28;20151;-63
2021/12/10 06:27:45;;;;;;;23.70;16.55;;;2.60;99.90;;;;;;5097087;28;20471;-63
2021/12/10 06:30:17;;;;;;;18.33;14.90;;;2.60;99.90;;;;;;5091872;28;20145;-63
2021/12/10 06:32:45;;;;;;;21.17;15.95;;;2.50;99.90;;;;;;5129212;27;20696;-63
2021/12/10 06:35:13;;;;;;;17.67;14.32;;;2.50;99.90;;;;;;5097079;28;20118;-63
2021/12/10 06:37:41;;;;;;;20.85;14.95;;;2.50;99.90;;;;;;5095330;28;20055;-63
2021/12/10 06:40:10;;;;;;;26.50;15.75;;;2.50;99.90;;;;;;5130248;27;20040;-63
2021/12/10 06:42:36;;;;;;;16.90;14.38;;;2.50;99.90;;;;;;5093664;28;20485;-63
2021/12/10 06:45:08;;;;;;;17.33;14.35;;;2.40;99.90;;;;;;5129047;27;20071;-64
2021/12/10 06:48:11;;;;;;;19.02;13.60;;;2.40;99.90;;;;;;5098347;28;20501;-63
2021/12/10 06:50:49;;;;;;;19.73;13.50;;;2.30;99.90;;;;;;5096428;28;20086;-63
2021/12/10 06:53:17;;;;;;;19.40;13.48;;;2.40;99.90;;;;;;5098269;28;20801;-63
2021/12/10 06:55:42;;;;;;;16.73;13.02;;;2.30;99.90;;;;;;5127055;27;20118;-63
2021/12/10 06:58:08;;;;;;;19.77;13.85;;;2.50;99.90;;;;;;5094575;28;20147;-63
2021/12/10 07:01:06;;;;;;;19.88;13.57;;;2.20;99.90;;;;;;5093807;28;20044;-63
2021/12/10 07:03:32;;;;;;;16.90;13.10;;;2.20;99.90;;;;;;5097193;27;20035;-63
2021/12/10 07:06:00;;;;;;;22.02;14.77;;;2.30;99.90;;;;;;5100254;27;20027;-63
2021/12/10 07:08:28;;;;;;;24.33;14.23;;;2.20;99.90;;;;;;5096840;27;20042;-63
2021/12/10 07:10:55;;;;;;;19.45;13.18;;;2.20;99.90;;;;;;5099630;28;20709;-63
2021/12/10 07:13:21;;;;;;;17.73;12.75;;;2.20;99.90;;;;;;5100899;28;20036;-63
2021/12/10 07:15:49;;;;;;;21.77;13.80;;;2.20;99.90;;;;;;5095244;28;20065;-63
2021/12/10 07:18:16;;;;;;;20.55;14.80;;;2.10;99.90;;;;;;5100303;27;20130;-63
2021/12/10 07:20:43;;;;;;;17.60;12.43;;;2.20;99.90;;;;;;5129726;27;20044;-63
2021/12/10 07:23:09;;;;;;;19.80;12.38;;;2.10;99.90;;;;;;5097947;28;20035;-63
2021/12/10 07:25:35;;;;;;;17.98;13.73;;;2.00;99.90;;;;;;5100201;28;20036;-63
2021/12/10 07:28:01;;;;;;;17.33;13.05;;;2.00;99.90;;;;;;5112653;27;20547;-63
2021/12/10 07:30:28;;;;;;;21.48;12.93;;;2.10;99.90;;;;;;5132819;27;20393;-63
2021/12/10 07:32:54;;;;;;;16.17;12.90;;;2.00;99.90;;;;;;5130502;27;20074;-63
2021/12/10 07:35:20;;;;;;;17.20;12.57;;;2.00;99.90;;;;;;5096963;28;20058;-63
2021/12/10 07:37:46;;;;;;;16.02;11.63;;;2.00;99.90;;;;;;5098326;27;20095;-63
2021/12/10 07:40:16;;;;;;;17.45;11.95;;;2.10;99.90;;;;;;5094855;27;20047;-63
2021/12/10 07:42:42;;;;;;;16.13;11.50;;;2.20;99.90;;;;;;5094209;28;20468;-63
2021/12/10 07:45:09;;;;;;;16.17;11.35;;;2.20;99.90;;;;;;5097210;28;20427;-63
2021/12/10 07:47:37;;;;;;;15.88;11.48;;;2.00;99.90;;;;;;5096497;28;20468;-63
2021/12/10 07:50:08;;;;;;;15.48;11.18;;;2.10;99.90;;;;;;5130042;27;20047;-63
2021/12/10 07:52:34;;;;;;;17.20;11.73;;;2.00;99.90;;;;;;5129703;27;20049;-63
2021/12/10 07:55:03;;;;;;;14.75;10.85;;;2.00;99.90;;;;;;5127574;27;20051;-63
2021/12/10 07:57:29;;;;;;;13.52;10.70;;;2.00;99.90;;;;;;5098002;27;20051;-62
2021/12/10 07:59:56;;;;;;;14.65;10.35;;;2.10;99.90;;;;;;5098261;28;20040;-63
2021/12/10 08:02:21;;;;;;;17.13;10.05;;;2.10;99.90;;;;;;5097026;28;20158;-63
2021/12/10 08:04:47;;;;;;;14.70;10.65;;;2.00;99.90;;;;;;5095156;28;20151;-63
2021/12/10 08:07:13;;;;;;;16.20;10.00;;;2.10;99.90;;;;;;5100211;27;20641;-63
2021/12/10 08:09:40;;;;;;;16.35;10.23;;;2.10;99.90;;;;;;5096222;27;20036;-63
2021/12/10 08:12:06;;;;;;;10.85;8.95;;;2.10;99.90;;;;;;5096777;28;20044;-63
2021/12/10 08:14:31;;;;;;;13.30;9.60;;;2.10;99.90;;;;;;5096640;28;20044;-63
2021/12/10 08:16:57;;;;;;;16.02;9.77;;;2.20;99.90;;;;;;5098696;27;20047;-63
2021/12/10 08:19:23;;;;;;;11.35;8.55;;;2.20;99.90;;;;;;5099999;27;20052;-63
2021/12/10 08:21:49;;;;;;;13.57;9.15;;;2.20;99.90;;;;;;5101317;27;20077;-63
2021/12/10 08:24:14;;;;;;;11.90;8.95;;;2.20;99.90;;;;;;5095098;28;20035;-63
2021/12/10 08:26:40;;;;;;;11.85;8.50;;;2.30;99.90;;;;;;5098616;27;20051;-63
2021/12/10 08:29:07;;;;;;;16.23;9.13;;;2.30;99.90;;;;;;5097562;28;20040;-63
2021/12/10 08:31:33;;;;;;;13.10;8.77;;;2.30;99.90;;;;;;5096690;28;20092;-63
2021/12/10 08:34:00;;;;;;;10.63;8.82;;;2.40;99.90;;;;;;5097850;28;20061;-63
2021/12/10 08:36:27;;;;;;;10.68;8.57;;;2.40;99.90;;;;;;5130692;27;20426;-63
2021/12/10 08:38:53;;;;;;;13.30;9.10;;;2.40;99.90;;;;;;5099369;28;20069;-63
2021/12/10 08:41:23;;;;;;;13.77;8.13;;;2.40;99.90;;;;;;5098899;27;20412;-63
2021/12/10 08:43:50;;;;;;;10.75;7.65;;;2.40;99.90;;;;;;5097016;27;20480;-63
2021/12/10 08:46:17;;;;;;;13.43;8.23;;;2.50;99.90;;;;;;5099061;28;20040;-63
2021/12/10 08:48:44;;;;;;;13.30;7.95;;;2.50;99.90;;;;;;5098160;27;20517;-63
2021/12/10 08:51:14;;;;;;;13.48;7.80;;;2.50;99.90;;;;;;5096439;27;20054;-63
2021/12/10 08:53:40;;;;;;;10.05;7.47;;;2.50;99.90;;;;;;5097557;28;20039;-63
2021/12/10 08:56:06;;;;;;;20.08;6.70;;;2.60;99.90;;;;;;5099791;28;20068;-63
2021/12/10 08:58:33;;;;;;;11.00;7.30;;;2.60;99.90;;;;;;5096981;28;20067;-63
2021/12/10 09:01:10;;;;;;;13.00;7.88;;;2.70;99.90;;;;;;5099701;28;20113;-63
2021/12/10 09:03:35;;;;;;;14.15;7.18;;;2.70;99.90;;;;;;5098372;28;20782;-63
2021/12/10 09:06:03;;;;;;;10.65;7.55;;;2.70;99.90;;;;;;5097764;28;20064;-63
2021/12/10 09:08:28;;;;;;;12.82;6.40;;;2.80;99.90;;;;;;5099719;27;20043;-63
2021/12/10 09:10:54;;;;;;;10.57;7.35;;;2.90;99.90;;;;;;5099628;28;20047;-63
2021/12/10 09:13:21;;;;;;;8.73;6.20;;;2.90;99.90;;;;;;5097599;27;20040;-63
2021/12/10 09:15:49;;;;;;;7.82;6.38;;;2.90;99.90;;;;;;5097496;28;20032;-63
2021/12/10 09:18:15;;;;;;;8.35;5.90;;;2.90;99.90;;;;;;5104073;28;20568;-63
2021/12/10 09:20:46;;;;;;;6.93;6.05;;;3.00;99.90;;;;;;5100344;27;20126;-63
2021/12/10 09:23:15;;;;;;;9.10;6.03;;;3.00;99.90;;;;;;5099114;27;20627;-63
2021/12/10 09:25:42;;;;;;;10.95;6.13;;;3.00;99.90;;;;;;5113215;27;20069;-63
2021/12/10 09:28:09;;;;;;;12.02;5.85;;;3.10;99.90;;;;;;5129172;27;20064;-63
2021/12/10 09:30:37;;;;;;;9.80;5.47;;;3.10;99.90;;;;;;5098849;27;20036;-63
2021/12/10 09:33:03;;;;;;;9.05;5.57;;;3.20;99.90;;;;;;5130528;27;20656;-63
2021/12/10 09:35:32;;;;;;;10.50;5.63;;;3.20;99.90;;;;;;5098192;27;20042;-63
2021/12/10 09:37:59;;;;;;;10.35;5.82;;;3.30;99.90;;;;;;5112627;27;20078;-63
2021/12/10 09:40:30;;;;;;;9.95;5.82;;;3.30;99.90;;;;;;5097634;28;20096;-62
2021/12/10 09:42:56;;;;;;;8.30;5.15;;;3.30;99.90;;;;;;5096475;28;20044;-62
2021/12/10 09:45:24;;;;;;;9.05;5.15;;;3.40;99.90;;;;;;5093097;28;20039;-62
2021/12/10 09:47:50;;;;;;;7.80;5.60;;;3.40;99.90;;;;;;5100756;28;20412;-62
2021/12/10 09:50:19;;;;;;;7.45;4.90;;;3.40;99.90;;;;;;5129516;27;20089;-62
2021/12/10 09:52:46;;;;;;;8.13;5.18;;;3.50;99.90;;;;;;5097251;28;20481;-62
2021/12/10 09:55:16;;;;;;;9.07;5.90;;;3.60;99.90;;;;;;5115211;27;20043;-62
2021/12/10 09:57:44;;;;;;;8.35;4.88;;;3.60;99.90;;;;;;5129708;27;20120;-61
2021/12/10 10:00:16;;;;;;;14.57;5.70;;;3.60;99.90;;;;;;5096719;28;20043;-62
2021/12/10 10:02:42;;;;;;;8.35;4.30;;;3.70;99.90;;;;;;5096112;28;20048;-61
2021/12/10 10:05:09;;;;;;;12.70;6.25;;;3.70;99.90;;;;;;5098049;28;20043;-60
2021/12/10 10:07:36;;;;;;;11.80;6.95;;;3.70;99.90;;;;;;5098400;28;20039;-61
2021/12/10 10:10:14;;;;;;;7.03;5.22;;;3.90;99.90;;;;;;5097632;28;20054;-62
2021/12/10 10:12:45;;;;;;;7.68;4.20;;;3.90;99.90;;;;;;5095258;28;20135;-61
2021/12/10 10:15:16;;;;;;;7.22;4.35;;;4.10;99.90;;;;;;5098002;28;20075;-61
2021/12/10 10:17:42;;;;;;;8.07;4.13;;;4.20;99.90;;;;;;5094789;28;20051;-62
2021/12/10 10:20:11;;;;;;;8.35;5.25;;;4.30;99.90;;;;;;5098512;28;20036;-61
2021/12/10 10:22:37;;;;;;;8.55;4.28;;;4.40;99.90;;;;;;5115126;28;20036;-61
2021/12/10 10:25:08;;;;;;;9.20;4.70;;;4.40;99.90;;;;;;5093603;28;20181;-61
2021/12/10 10:27:47;;;;;;;6.18;3.78;;;4.40;99.90;;;;;;5095997;28;20039;-61
2021/12/10 10:30:24;;;;;;;5.78;4.38;;;4.40;99.90;;;;;;5114511;27;20047;-61
2021/12/10 10:32:51;;;;;;;7.75;3.80;;;4.40;99.90;;;;;;5084109;28;20138;-62
2021/12/10 10:35:22;;;;;;;12.18;4.10;;;4.40;99.90;;;;;;5094520;28;20044;-62
2021/12/10 10:37:49;;;;;;;7.85;4.15;;;4.40;99.90;;;;;;5098332;28;20059;-62
2021/12/10 10:40:20;;;;;;;11.68;4.82;;;4.50;99.90;;;;;;5101436;28;20104;-61
2021/12/10 10:42:48;;;;;;;9.75;4.32;;;4.60;99.90;;;;;;5100729;28;20036;-61
2021/12/10 10:45:17;;;;;;;5.97;4.00;;;4.70;99.90;;;;;;5133349;27;20047;-61
2021/12/10 10:47:45;;;;;;;5.03;3.47;;;4.80;99.90;;;;;;5101512;27;21112;-61
2021/12/10 10:50:22;;;;;;;5.03;3.30;;;4.90;99.90;;;;;;5101622;28;20117;-61
2021/12/10 10:52:53;;;;;;;9.98;3.75;;;5.00;99.90;;;;;;5102222;28;20169;-61
2021/12/10 10:55:32;;;;;;;8.10;3.53;;;5.00;99.90;;;;;;5101513;27;20130;-61
2021/12/10 10:58:07;;;;;;;7.78;3.67;;;5.00;99.90;;;;;;5102634;27;20047;-62
2021/12/10 11:00:52;;;;;;;6.07;3.50;;;4.90;99.90;;;;;;5098814;28;20047;-62
2021/12/10 11:03:22;;;;;;;6.45;3.72;;;4.90;99.90;;;;;;5098072;28;20429;-62
2021/12/10 11:05:56;;;;;;;8.13;3.67;;;5.00;99.90;;;;;;5102100;27;20750;-62
2021/12/10 11:08:40;;;;;;;10.32;3.53;;;5.00;99.90;;;;;;5101067;28;20040;-62
2021/12/10 11:11:15;;;;;;;5.63;3.35;;;5.20;99.90;;;;;;5100785;27;20126;-62
2021/12/10 11:13:43;;;;;;;4.68;3.10;;;5.20;99.90;;;;;;5130491;27;20087;-62
2021/12/10 11:16:13;;;;;;;6.57;3.20;;;5.10;99.90;;;;;;5100489;27;20035;-62
2021/12/10 11:18:49;;;;;;;7.60;3.50;;;5.20;99.90;;;;;;5102693;27;20050;-62
2021/12/10 11:21:17;;;;;;;7.80;3.97;;;5.40;99.90;;;;;;5099953;28;20043;-63
2021/12/10 11:23:44;;;;;;;3.90;2.70;;;5.40;99.90;;;;;;5132395;27;20043;-63
2021/12/10 11:26:10;;;;;;;6.50;3.35;;;5.50;99.90;;;;;;5131527;27;20469;-63
2021/12/10 11:28:41;;;;;;;6.03;2.80;;;5.50;99.90;;;;;;5100481;28;20032;-63
2021/12/10 11:31:11;;;;;;;6.20;2.65;;;5.50;99.90;;;;;;5099591;27;20040;-63
2021/12/10 11:33:43;;;;;;;7.75;2.70;;;5.50;99.90;;;;;;5099209;27;20044;-63
2021/12/10 11:36:14;;;;;;;5.72;3.05;;;5.50;99.90;;;;;;5133358;27;20043;-63
2021/12/10 11:38:41;;;;;;;6.60;2.65;;;5.50;99.90;;;;;;5099180;27;20184;-63
2021/12/10 11:41:11;;;;;;;4.50;2.42;;;5.40;99.90;;;;;;5097695;27;20047;-62
2021/12/10 11:49:11;;;;;;;6.03;2.50;;;5.40;99.90;;;;;;5100212;28;20036;-62
2021/12/10 11:51:39;;;;;;;6.53;2.42;;;5.40;99.90;;;;;;5102402;27;20055;-62
2021/12/10 11:54:17;;;;;;;8.38;3.53;;;5.40;99.90;;;;;;5098798;28;20071;-62
2021/12/10 11:57:10;;;;;;;3.83;2.45;;;5.40;99.90;;;;;;5102074;28;20035;-62
2021/12/10 11:59:45;;;;;;;5.85;2.72;;;5.40;99.90;;;;;;5136620;27;20050;-62
2021/12/10 12:02:16;;;;;;;4.80;2.60;;;5.50;99.90;;;;;;5098801;27;20066;-62
2021/12/10 12:04:46;;;;;;;7.85;2.47;;;5.50;99.90;;;;;;5098199;27;20095;-62
2021/12/10 12:07:39;;;;;;;6.15;2.38;;;5.50;99.90;;;;;;5100281;28;20043;-62
2021/12/10 12:10:39;;;;;;;5.35;2.15;;;5.60;99.90;;;;;;5100904;27;20054;-62
2021/12/10 12:15:43;;;;;;;;;;;5.50;99.90;;;;;;5128328;27;20059;-62
2021/12/10 12:18:29;;;;;;;6.03;2.13;;;5.50;99.90;;;;;;5095482;28;19923;-62
2021/12/10 12:27:08;;;;;;;6.88;2.20;;;5.30;99.90;;;;;;5129645;27;20070;-62
2021/12/10 12:29:38;;;;;;;7.63;2.03;;;5.30;99.90;;;;;;5110826;27;20035;-62
2021/12/10 12:32:19;;;;;;;7.50;2.03;;;5.20;99.90;;;;;;5096185;28;20108;-62
2021/12/10 12:34:46;;;;;;;3.95;2.08;;;5.20;99.90;;;;;;5097011;28;20077;-62
2021/12/10 12:37:14;;;;;;;7.88;2.38;;;5.20;99.90;;;;;;5098703;27;20048;-62
2021/12/10 12:39:54;;;;;;;4.93;2.10;;;5.20;99.90;;;;;;5098909;28;20407;-62
2021/12/10 12:42:22;;;;;;;4.25;1.90;;;5.20;99.90;;;;;;5101270;27;20040;-62
2021/12/10 12:44:51;;;;;;;6.57;2.97;;;5.20;99.90;;;;;;5099508;28;20159;-62
2021/12/10 12:47:42;;;;;;;7.63;2.80;;;5.30;99.90;;;;;;5096582;27;20051;-62
2021/12/10 12:50:21;;;;;;;8.60;2.25;;;5.20;99.90;;;;;;5103461;28;20032;-62
2021/12/10 12:52:51;;;;;;;7.28;2.42;;;5.20;99.90;;;;;;5086144;28;20127;-62
2021/12/10 12:55:40;;;;;;;7.82;2.35;;;5.20;99.90;;;;;;5130582;27;20043;-62
2021/12/10 12:58:16;;;;;;;6.43;2.15;;;5.10;99.90;;;;;;5097696;28;20055;-62
2021/12/10 13:01:02;;;;;;;6.72;1.88;;;5.20;99.90;;;;;;5099936;27;20051;-62
2021/12/10 13:03:36;;;;;;;6.57;2.30;;;5.10;99.90;;;;;;5098292;28;20091;-62
2021/12/10 13:06:09;;;;;;;5.25;2.08;;;5.10;99.90;;;;;;5098707;28;20050;-62
2021/12/10 13:08:39;;;;;;;8.70;2.60;;;5.10;99.90;;;;;;5097587;28;20043;-62
2021/12/10 13:11:09;;;;;;;7.03;2.03;;;5.10;99.90;;;;;;5097647;28;20044;-62
2021/12/10 13:13:51;;;;;;;8.63;2.22;;;5.10;99.90;;;;;;5099660;27;20043;-62
2021/12/10 13:16:44;;;;;;;9.65;2.08;;;5.20;99.90;;;;;;5097437;27;20123;-62
2021/12/10 13:19:16;;;;;;;5.25;2.08;;;5.20;99.90;;;;;;5098274;28;20035;-62
2021/12/10 13:21:44;;;;;;;4.13;2.05;;;5.20;99.90;;;;;;5100190;28;21535;-62
2021/12/10 13:24:12;;;;;;;4.82;1.85;;;5.30;99.90;;;;;;5101612;28;20040;-63
2021/12/10 13:26:38;;;;;;;8.82;1.90;;;5.20;99.90;;;;;;5096676;28;20080;-63
2021/12/10 13:29:04;;;;;;;3.72;1.85;;;5.30;99.90;;;;;;5129594;27;20039;-63
2021/12/10 13:31:29;;;;;;;6.35;1.95;;;5.30;99.90;;;;;;5100165;28;20050;-63
2021/12/10 13:33:55;;;;;;;7.53;2.30;;;5.20;99.90;;;;;;5095478;28;20036;-63
2021/12/10 13:36:21;;;;;;;11.30;2.17;;;5.20;99.90;;;;;;5096952;28;20079;-63
2021/12/10 13:38:51;;;;;;;6.20;2.10;;;5.20;99.90;;;;;;5095283;27;20075;-63
2021/12/10 13:41:20;;;;;;;6.30;2.53;;;5.20;99.90;;;;;;5127815;27;20525;-63
2021/12/10 13:43:50;;;;;;;6.22;1.52;;;5.20;99.90;;;;;;5099137;27;20027;-63
2021/12/10 13:46:18;;;;;;;6.15;2.33;;;5.20;99.90;;;;;;5099120;27;20412;-63
2021/12/10 13:48:48;;;;;;;5.70;1.90;;;5.20;99.90;;;;;;5097528;28;20122;-63
2021/12/10 13:51:17;;;;;;;8.00;2.13;;;5.10;99.90;;;;;;5096276;28;20429;-63
2021/12/10 13:54:07;;;;;;;6.35;2.10;;;5.20;99.90;;;;;;5097384;27;20114;-63
2021/12/10 13:56:35;;;;;;;6.97;2.00;;;5.10;99.90;;;;;;5099106;28;20043;-63
2021/12/10 13:59:07;;;;;;;6.25;1.80;;;5.10;99.90;;;;;;5098788;27;21208;-63
2021/12/10 14:01:38;;;;;;;5.13;2.38;;;5.20;99.90;;;;;;5095096;28;20061;-63
2021/12/10 14:04:14;;;;;;;6.10;2.28;;;5.10;99.90;;;;;;5097246;27;20044;-63
2021/12/10 14:07:03;;;;;;;5.80;2.03;;;5.10;99.90;;;;;;5097291;28;20036;-63
2021/12/10 14:09:51;;;;;;;5.07;2.35;;;5.00;99.90;;;;;;5128355;27;20476;-63
2021/12/10 14:12:44;;;;;;;6.25;2.42;;;5.00;99.90;;;;;;5097204;28;20047;-63
2021/12/10 14:15:23;;;;;;;6.85;2.60;;;4.80;99.90;;;;;;5097808;28;20062;-62
2021/12/10 14:17:58;;;;;;;4.82;2.20;;;4.80;99.90;;;;;;5100905;28;20101;-62
2021/12/10 14:20:29;;;;;;;6.00;2.63;;;4.80;99.90;;;;;;5100464;28;20039;-62
2021/12/10 14:23:35;;;;;;;6.05;2.00;;;4.70;99.90;;;;;;5100864;27;20044;-62
2021/12/10 14:26:12;;;;;;;11.00;2.95;;;4.80;99.90;;;;;;5131107;27;20085;-62
2021/12/10 14:28:39;;;;;;;6.30;2.78;;;4.70;99.90;;;;;;5106121;27;20039;-62
2021/12/10 14:31:11;;;;;;;13.75;3.03;;;4.70;99.90;;;;;;5100726;27;20052;-62
2021/12/10 14:33:42;;;;;;;4.47;2.20;;;4.50;99.90;;;;;;5102338;27;20036;-62
2021/12/10 14:36:21;;;;;;;9.90;2.53;;;4.40;99.90;;;;;;5098012;27;20069;-62
2021/12/10 14:39:10;;;;;;;7.30;2.42;;;4.40;99.90;;;;;;5104766;27;20070;-62
2021/12/10 14:41:43;;;;;;;6.93;3.00;;;4.40;99.90;;;;;;5100751;28;20927;-61
2021/12/10 14:44:11;;;;;;;10.02;2.88;;;4.30;99.90;;;;;;5101675;28;20109;-62
2021/12/10 14:46:45;;;;;;;5.85;2.22;;;4.30;99.90;;;;;;5103283;27;20049;-62
2021/12/10 14:49:27;;;;;;;7.32;3.10;;;4.30;99.90;;;;;;5100603;27;20683;-62
2021/12/10 14:52:22;;;;;;;4.00;2.33;;;4.30;99.90;;;;;;5113270;27;20040;-62
2021/12/10 14:54:57;;;;;;;6.43;2.42;;;4.20;99.90;;;;;;5100133;28;20542;-62
2021/12/10 14:57:47;;;;;;;6.97;2.42;;;4.10;99.90;;;;;;5104919;27;20073;-62
2021/12/10 15:00:33;;;;;;;5.95;2.40;;;4.10;99.90;;;;;;5131756;27;20058;-62
2021/12/10 15:03:01;;;;;;;5.72;2.22;;;4.00;99.90;;;;;;5102958;27;20113;-62
2021/12/10 15:05:38;;;;;;;6.70;3.13;;;3.90;99.90;;;;;;5099981;27;20047;-62
2021/12/10 15:08:07;;;;;;;7.13;3.03;;;3.90;99.90;;;;;;5099377;28;20088;-62
2021/12/10 15:10:44;;;;;;;7.13;2.63;;;3.80;99.90;;;;;;5103159;28;20044;-62
2021/12/10 15:13:28;;;;;;;8.23;2.90;;;3.80;99.90;;;;;;5101327;28;20039;-62
2021/12/10 15:16:00;;;;;;;7.38;3.17;;;3.80;99.90;;;;;;5104341;28;20043;-62
2021/12/10 15:18:30;;;;;;;8.20;2.92;;;3.80;99.90;;;;;;5098355;28;20040;-62
2021/12/10 15:21:34;;;;;;;9.07;3.40;;;3.80;99.90;;;;;;5099119;27;20537;-62
2021/12/10 15:24:15;;;;;;;7.30;3.08;;;3.70;99.90;;;;;;5070398;28;20752;-62
2021/12/10 15:26:59;;;;;;;6.93;3.70;;;3.70;99.90;;;;;;5102645;27;20036;-62
2021/12/10 15:29:34;;;;;;;7.53;3.05;;;3.60;99.90;;;;;;5100364;27;20089;-62
2021/12/10 15:32:08;;;;;;;8.23;3.35;;;3.60;99.90;;;;;;5101151;27;20048;-62
2021/12/10 15:34:40;;;;;;;8.10;4.13;;;3.60;99.90;;;;;;5097230;27;20050;-62
2021/12/10 15:37:08;;;;;;;7.63;3.65;;;3.50;99.90;;;;;;5101267;27;20059;-62
2021/12/10 15:39:37;;;;;;;4.97;3.35;;;3.60;99.90;;;;;;5099451;28;20032;-62
2021/12/10 15:42:05;;;;;;;5.18;3.22;;;3.50;99.90;;;;;;5099701;27;20111;-62
2021/12/10 15:44:38;;;;;;;9.40;3.50;;;3.40;99.90;;;;;;5100696;27;20042;-62
2021/12/10 15:47:04;;;;;;;8.02;3.55;;;3.50;99.90;;;;;;5097964;27;20595;-62
2021/12/10 15:49:30;;;;;;;9.25;3.95;;;3.40;99.90;;;;;;5098293;27;20067;-62
2021/12/10 15:52:04;;;;;;;8.63;3.50;;;3.40;99.90;;;;;;5101284;27;20039;-62
2021/12/10 15:54:41;;;;;;;7.80;3.63;;;3.40;99.90;;;;;;5116253;27;20071;-62